sensor_id;sensor_type;location;lat;lon;timestamp;P1;durP1;ratioP1;P2;durP2;ratioP2
10275;SDS011;5183;51.190;6.820;2023-01-23T00:02:18;26.90;;;19.23;;
10275;SDS011;5183;51.190;6.820;2023-01-23T00:04:45;26.87;;;19.80;;
10275;SDS011;5183;51.190;6.820;2023-01-23T00:07:15;25.93;;;19.07;;
10275;SDS011;5183;51.190;6.820;2023-01-23T00:09:43;23.33;;;17.60;;
10275;SDS011;5183;51.190;6.820;2023-01-23T00:12:10;22.73;;;17.07;;
10275;SDS011;5183;51.190;6.820;2023-01-23T00:14:37;24.87;;;17.83;;
10275;SDS011;5183;51.190;6.820;2023-01-23T00:17:04;24.83;;;18.03;;
10275;SDS011;5183;51.190;6.820;2023-01-23T00:19:35;22.63;;;16.90;;
10275;SDS011;5183;51.190;6.820;2023-01-23T00:22:02;23.83;;;17.33;;
10275;SDS011;5183;51.190;6.820;2023-01-23T00:24:28;22.53;;;16.53;;
10275;SDS011;5183;51.190;6.820;2023-01-23T00:26:57;23.40;;;17.97;;
10275;SDS011;5183;51.190;6.820;2023-01-23T00:29:23;23.70;;;17.80;;
10275;SDS011;5183;51.190;6.820;2023-01-23T00:31:50;23.63;;;17.40;;
10275;SDS011;5183;51.190;6.820;2023-01-23T00:34:20;23.93;;;17.60;;
10275;SDS011;5183;51.190;6.820;2023-01-23T00:36:47;24.10;;;17.53;;
10275;SDS011;5183;51.190;6.820;2023-01-23T00:39:22;22.93;;;17.17;;
10275;SDS011;5183;51.190;6.820;2023-01-23T00:41:49;24.63;;;18.10;;
10275;SDS011;5183;51.190;6.820;2023-01-23T00:44:17;24.87;;;18.70;;
10275;SDS011;5183;51.190;6.820;2023-01-23T00:46:48;25.77;;;18.20;;
10275;SDS011;5183;51.190;6.820;2023-01-23T00:49:15;24.50;;;17.80;;
10275;SDS011;5183;51.190;6.820;2023-01-23T00:51:42;23.20;;;17.53;;
10275;SDS011;5183;51.190;6.820;2023-01-23T00:54:09;24.57;;;18.70;;
10275;SDS011;5183;51.190;6.820;2023-01-23T00:56:38;26.20;;;18.13;;
10275;SDS011;5183;51.190;6.820;2023-01-23T00:59:05;23.83;;;18.70;;
10275;SDS011;5183;51.190;6.820;2023-01-23T01:01:34;25.10;;;18.23;;
10275;SDS011;5183;51.190;6.820;2023-01-23T01:04:06;24.87;;;18.43;;
10275;SDS011;5183;51.190;6.820;2023-01-23T01:06:33;24.50;;;18.00;;
10275;SDS011;5183;51.190;6.820;2023-01-23T01:09:00;25.77;;;18.13;;
10275;SDS011;5183;51.190;6.820;2023-01-23T01:11:33;24.87;;;18.60;;
10275;SDS011;5183;51.190;6.820;2023-01-23T01:14:00;26.13;;;18.60;;
10275;SDS011;5183;51.190;6.820;2023-01-23T01:16:27;25.97;;;19.03;;
10275;SDS011;5183;51.190;6.820;2023-01-23T01:18:58;25.23;;;18.83;;
10275;SDS011;5183;51.190;6.820;2023-01-23T01:21:25;27.53;;;18.80;;
10275;SDS011;5183;51.190;6.820;2023-01-23T01:23:52;25.57;;;18.47;;
10275;SDS011;5183;51.190;6.820;2023-01-23T01:26:19;26.43;;;19.37;;
10275;SDS011;5183;51.190;6.820;2023-01-23T01:28:53;27.53;;;19.50;;
10275;SDS011;5183;51.190;6.820;2023-01-23T01:31:19;27.20;;;19.80;;
10275;SDS011;5183;51.190;6.820;2023-01-23T01:33:46;28.33;;;20.20;;
10275;SDS011;5183;51.190;6.820;2023-01-23T01:36:21;28.83;;;21.03;;
10275;SDS011;5183;51.190;6.820;2023-01-23T01:38:49;29.63;;;21.47;;
10275;SDS011;5183;51.190;6.820;2023-01-23T01:41:18;27.90;;;20.23;;
10275;SDS011;5183;51.190;6.820;2023-01-23T01:43:45;26.40;;;20.10;;
10275;SDS011;5183;51.190;6.820;2023-01-23T01:46:14;27.27;;;19.63;;
10275;SDS011;5183;51.190;6.820;2023-01-23T01:49:01;29.83;;;20.17;;
10275;SDS011;5183;51.190;6.820;2023-01-23T01:51:34;28.10;;;19.03;;
10275;SDS011;5183;51.190;6.820;2023-01-23T01:54:06;26.77;;;19.43;;
10275;SDS011;5183;51.190;6.820;2023-01-23T01:56:47;28.87;;;20.90;;
10275;SDS011;5183;51.190;6.820;2023-01-23T01:59:16;27.80;;;20.00;;
10275;SDS011;5183;51.190;6.820;2023-01-23T02:01:52;27.80;;;20.23;;
10275;SDS011;5183;51.190;6.820;2023-01-23T02:04:28;29.40;;;20.60;;
10275;SDS011;5183;51.190;6.820;2023-01-23T02:07:08;28.43;;;20.97;;
10275;SDS011;5183;51.190;6.820;2023-01-23T02:09:40;27.80;;;21.10;;
10275;SDS011;5183;51.190;6.820;2023-01-23T02:12:09;27.70;;;20.23;;
10275;SDS011;5183;51.190;6.820;2023-01-23T02:14:41;24.97;;;18.93;;
10275;SDS011;5183;51.190;6.820;2023-01-23T02:17:08;27.70;;;20.77;;
10275;SDS011;5183;51.190;6.820;2023-01-23T02:19:38;28.97;;;20.50;;
10275;SDS011;5183;51.190;6.820;2023-01-23T02:22:29;29.23;;;20.77;;
10275;SDS011;5183;51.190;6.820;2023-01-23T02:25:07;26.90;;;19.43;;
10275;SDS011;5183;51.190;6.820;2023-01-23T02:27:42;27.20;;;19.40;;
10275;SDS011;5183;51.190;6.820;2023-01-23T02:30:18;28.67;;;20.17;;
10275;SDS011;5183;51.190;6.820;2023-01-23T02:32:47;27.33;;;19.93;;
10275;SDS011;5183;51.190;6.820;2023-01-23T02:35:18;29.00;;;20.07;;
10275;SDS011;5183;51.190;6.820;2023-01-23T02:37:48;30.30;;;21.87;;
10275;SDS011;5183;51.190;6.820;2023-01-23T02:40:28;33.70;;;23.53;;
10275;SDS011;5183;51.190;6.820;2023-01-23T02:43:04;29.80;;;21.93;;
10275;SDS011;5183;51.190;6.820;2023-01-23T02:45:34;33.50;;;23.40;;
10275;SDS011;5183;51.190;6.820;2023-01-23T02:48:01;34.27;;;22.80;;
10275;SDS011;5183;51.190;6.820;2023-01-23T02:50:34;33.33;;;22.80;;
10275;SDS011;5183;51.190;6.820;2023-01-23T02:53:00;34.40;;;23.50;;
10275;SDS011;5183;51.190;6.820;2023-01-23T02:55:27;35.77;;;23.70;;
10275;SDS011;5183;51.190;6.820;2023-01-23T02:57:55;34.20;;;22.93;;
10275;SDS011;5183;51.190;6.820;2023-01-23T03:00:54;35.80;;;23.33;;
10275;SDS011;5183;51.190;6.820;2023-01-23T03:03:20;37.03;;;24.67;;
10275;SDS011;5183;51.190;6.820;2023-01-23T03:05:47;35.73;;;25.10;;
10275;SDS011;5183;51.190;6.820;2023-01-23T03:08:17;33.87;;;23.10;;
10275;SDS011;5183;51.190;6.820;2023-01-23T03:10:43;35.57;;;23.83;;
10275;SDS011;5183;51.190;6.820;2023-01-23T03:13:10;35.43;;;23.20;;
10275;SDS011;5183;51.190;6.820;2023-01-23T03:15:37;34.80;;;23.77;;
10275;SDS011;5183;51.190;6.820;2023-01-23T03:18:07;35.23;;;24.13;;
10275;SDS011;5183;51.190;6.820;2023-01-23T03:20:37;35.73;;;23.53;;
10275;SDS011;5183;51.190;6.820;2023-01-23T03:23:10;35.50;;;24.00;;
10275;SDS011;5183;51.190;6.820;2023-01-23T03:25:37;39.90;;;26.67;;
10275;SDS011;5183;51.190;6.820;2023-01-23T03:28:17;37.07;;;24.97;;
10275;SDS011;5183;51.190;6.820;2023-01-23T03:30:58;41.57;;;25.80;;
10275;SDS011;5183;51.190;6.820;2023-01-23T03:33:29;39.27;;;26.43;;
10275;SDS011;5183;51.190;6.820;2023-01-23T03:35:56;39.87;;;27.33;;
10275;SDS011;5183;51.190;6.820;2023-01-23T03:38:22;39.67;;;27.03;;
10275;SDS011;5183;51.190;6.820;2023-01-23T03:40:49;40.00;;;26.27;;
10275;SDS011;5183;51.190;6.820;2023-01-23T03:43:33;38.20;;;25.47;;
10275;SDS011;5183;51.190;6.820;2023-01-23T03:46:05;42.00;;;27.50;;
10275;SDS011;5183;51.190;6.820;2023-01-23T03:48:33;38.60;;;26.07;;
10275;SDS011;5183;51.190;6.820;2023-01-23T03:51:00;41.60;;;27.30;;
10275;SDS011;5183;51.190;6.820;2023-01-23T03:53:30;39.97;;;26.47;;
10275;SDS011;5183;51.190;6.820;2023-01-23T03:55:57;40.30;;;27.50;;
10275;SDS011;5183;51.190;6.820;2023-01-23T03:58:23;37.47;;;25.27;;
10275;SDS011;5183;51.190;6.820;2023-01-23T04:00:50;35.17;;;24.63;;
10275;SDS011;5183;51.190;6.820;2023-01-23T04:03:20;34.17;;;24.43;;
10275;SDS011;5183;51.190;6.820;2023-01-23T04:05:48;33.97;;;23.70;;
10275;SDS011;5183;51.190;6.820;2023-01-23T04:08:22;31.97;;;22.63;;
10275;SDS011;5183;51.190;6.820;2023-01-23T04:10:49;33.27;;;23.23;;
10275;SDS011;5183;51.190;6.820;2023-01-23T04:13:16;31.77;;;21.87;;
10275;SDS011;5183;51.190;6.820;2023-01-23T04:15:43;29.53;;;22.07;;
10275;SDS011;5183;51.190;6.820;2023-01-23T04:18:10;31.73;;;22.80;;
10275;SDS011;5183;51.190;6.820;2023-01-23T04:20:37;29.10;;;21.17;;
10275;SDS011;5183;51.190;6.820;2023-01-23T04:23:09;29.97;;;21.50;;
10275;SDS011;5183;51.190;6.820;2023-01-23T04:25:36;29.43;;;21.53;;
10275;SDS011;5183;51.190;6.820;2023-01-23T04:28:03;28.83;;;21.50;;
10275;SDS011;5183;51.190;6.820;2023-01-23T04:30:30;30.60;;;21.60;;
10275;SDS011;5183;51.190;6.820;2023-01-23T04:32:57;28.90;;;21.43;;
10275;SDS011;5183;51.190;6.820;2023-01-23T04:35:26;29.90;;;21.67;;
10275;SDS011;5183;51.190;6.820;2023-01-23T04:37:53;24.40;;;19.30;;
10275;SDS011;5183;51.190;6.820;2023-01-23T04:40:22;26.90;;;20.37;;
10275;SDS011;5183;51.190;6.820;2023-01-23T04:42:48;28.73;;;19.90;;
10275;SDS011;5183;51.190;6.820;2023-01-23T04:45:15;28.27;;;20.33;;
10275;SDS011;5183;51.190;6.820;2023-01-23T04:47:42;29.77;;;20.50;;
10275;SDS011;5183;51.190;6.820;2023-01-23T04:50:09;28.20;;;20.97;;
10275;SDS011;5183;51.190;6.820;2023-01-23T04:52:36;27.33;;;20.40;;
10275;SDS011;5183;51.190;6.820;2023-01-23T04:55:04;28.60;;;21.00;;
10275;SDS011;5183;51.190;6.820;2023-01-23T04:57:38;28.50;;;20.23;;
10275;SDS011;5183;51.190;6.820;2023-01-23T05:00:06;27.67;;;20.37;;
10275;SDS011;5183;51.190;6.820;2023-01-23T05:02:34;26.47;;;20.50;;
10275;SDS011;5183;51.190;6.820;2023-01-23T05:05:07;27.77;;;20.60;;
10275;SDS011;5183;51.190;6.820;2023-01-23T05:07:34;28.67;;;20.57;;
10275;SDS011;5183;51.190;6.820;2023-01-23T05:10:01;28.10;;;21.00;;
10275;SDS011;5183;51.190;6.820;2023-01-23T05:12:28;28.57;;;20.17;;
10275;SDS011;5183;51.190;6.820;2023-01-23T05:14:56;30.90;;;20.00;;
10275;SDS011;5183;51.190;6.820;2023-01-23T05:17:23;30.47;;;21.43;;
10275;SDS011;5183;51.190;6.820;2023-01-23T05:19:50;26.63;;;19.77;;
10275;SDS011;5183;51.190;6.820;2023-01-23T05:22:23;26.97;;;19.93;;
10275;SDS011;5183;51.190;6.820;2023-01-23T05:24:50;24.90;;;19.27;;
10275;SDS011;5183;51.190;6.820;2023-01-23T05:27:16;27.20;;;20.57;;
10275;SDS011;5183;51.190;6.820;2023-01-23T05:29:43;28.23;;;19.57;;
10275;SDS011;5183;51.190;6.820;2023-01-23T05:32:11;26.77;;;19.47;;
10275;SDS011;5183;51.190;6.820;2023-01-23T05:34:47;25.87;;;18.87;;
10275;SDS011;5183;51.190;6.820;2023-01-23T05:37:14;28.33;;;19.90;;
10275;SDS011;5183;51.190;6.820;2023-01-23T05:39:41;25.87;;;18.93;;
10275;SDS011;5183;51.190;6.820;2023-01-23T05:42:13;25.27;;;18.33;;
10275;SDS011;5183;51.190;6.820;2023-01-23T05:44:40;24.47;;;18.13;;
10275;SDS011;5183;51.190;6.820;2023-01-23T05:47:07;25.73;;;19.07;;
10275;SDS011;5183;51.190;6.820;2023-01-23T05:49:35;26.07;;;19.20;;
10275;SDS011;5183;51.190;6.820;2023-01-23T05:52:07;26.03;;;19.23;;
10275;SDS011;5183;51.190;6.820;2023-01-23T05:54:34;27.00;;;18.30;;
10275;SDS011;5183;51.190;6.820;2023-01-23T05:57:01;25.77;;;19.00;;
10275;SDS011;5183;51.190;6.820;2023-01-23T05:59:27;24.77;;;18.80;;
10275;SDS011;5183;51.190;6.820;2023-01-23T06:01:54;25.13;;;18.83;;
10275;SDS011;5183;51.190;6.820;2023-01-23T06:04:21;26.00;;;18.97;;
10275;SDS011;5183;51.190;6.820;2023-01-23T06:06:51;26.13;;;19.43;;
10275;SDS011;5183;51.190;6.820;2023-01-23T06:09:18;28.30;;;19.80;;
10275;SDS011;5183;51.190;6.820;2023-01-23T06:11:44;27.83;;;19.80;;
10275;SDS011;5183;51.190;6.820;2023-01-23T06:14:11;26.43;;;19.57;;
10275;SDS011;5183;51.190;6.820;2023-01-23T06:16:38;26.83;;;20.00;;
10275;SDS011;5183;51.190;6.820;2023-01-23T06:19:05;26.30;;;20.00;;
10275;SDS011;5183;51.190;6.820;2023-01-23T06:21:32;28.13;;;19.10;;
10275;SDS011;5183;51.190;6.820;2023-01-23T06:24:00;27.57;;;19.90;;
10275;SDS011;5183;51.190;6.820;2023-01-23T06:26:27;26.33;;;19.03;;
10275;SDS011;5183;51.190;6.820;2023-01-23T06:28:54;27.30;;;19.47;;
10275;SDS011;5183;51.190;6.820;2023-01-23T06:31:25;28.03;;;19.80;;
10275;SDS011;5183;51.190;6.820;2023-01-23T06:33:54;28.27;;;19.80;;
10275;SDS011;5183;51.190;6.820;2023-01-23T06:36:21;29.90;;;20.67;;
10275;SDS011;5183;51.190;6.820;2023-01-23T06:38:48;27.00;;;19.63;;
10275;SDS011;5183;51.190;6.820;2023-01-23T06:41:16;28.07;;;20.77;;
10275;SDS011;5183;51.190;6.820;2023-01-23T06:43:43;27.00;;;19.47;;
10275;SDS011;5183;51.190;6.820;2023-01-23T06:46:10;29.40;;;20.50;;
10275;SDS011;5183;51.190;6.820;2023-01-23T06:48:37;29.73;;;20.10;;
10275;SDS011;5183;51.190;6.820;2023-01-23T06:51:04;28.77;;;20.43;;
10275;SDS011;5183;51.190;6.820;2023-01-23T06:53:40;29.17;;;20.20;;
10275;SDS011;5183;51.190;6.820;2023-01-23T06:56:07;26.60;;;19.60;;
10275;SDS011;5183;51.190;6.820;2023-01-23T06:58:35;27.70;;;19.07;;
10275;SDS011;5183;51.190;6.820;2023-01-23T07:01:09;27.27;;;19.07;;
10275;SDS011;5183;51.190;6.820;2023-01-23T07:03:37;27.67;;;20.00;;
10275;SDS011;5183;51.190;6.820;2023-01-23T07:06:04;29.55;;;21.33;;
10275;SDS011;5183;51.190;6.820;2023-01-23T07:08:31;31.75;;;24.70;;
10275;SDS011;5183;51.190;6.820;2023-01-23T07:10:58;30.97;;;22.33;;
10275;SDS011;5183;51.190;6.820;2023-01-23T07:13:25;29.27;;;20.93;;
10275;SDS011;5183;51.190;6.820;2023-01-23T07:15:54;30.03;;;20.33;;
10275;SDS011;5183;51.190;6.820;2023-01-23T07:18:21;29.83;;;20.57;;
10275;SDS011;5183;51.190;6.820;2023-01-23T07:20:49;30.40;;;20.17;;
10275;SDS011;5183;51.190;6.820;2023-01-23T07:23:16;29.87;;;20.23;;
10275;SDS011;5183;51.190;6.820;2023-01-23T07:25:43;28.30;;;19.57;;
10275;SDS011;5183;51.190;6.820;2023-01-23T07:28:09;29.57;;;20.70;;
10275;SDS011;5183;51.190;6.820;2023-01-23T07:30:36;30.40;;;21.07;;
10275;SDS011;5183;51.190;6.820;2023-01-23T07:33:05;30.27;;;20.93;;
10275;SDS011;5183;51.190;6.820;2023-01-23T07:35:32;30.23;;;21.23;;
10275;SDS011;5183;51.190;6.820;2023-01-23T07:37:59;30.73;;;21.80;;
10275;SDS011;5183;51.190;6.820;2023-01-23T07:40:26;30.20;;;20.53;;
10275;SDS011;5183;51.190;6.820;2023-01-23T07:42:55;28.50;;;19.67;;
10275;SDS011;5183;51.190;6.820;2023-01-23T07:45:22;29.90;;;21.27;;
10275;SDS011;5183;51.190;6.820;2023-01-23T07:47:49;28.37;;;19.47;;
10275;SDS011;5183;51.190;6.820;2023-01-23T07:50:17;29.17;;;21.20;;
10275;SDS011;5183;51.190;6.820;2023-01-23T07:52:44;28.73;;;19.77;;
10275;SDS011;5183;51.190;6.820;2023-01-23T07:55:10;28.20;;;20.07;;
10275;SDS011;5183;51.190;6.820;2023-01-23T07:57:37;27.73;;;19.33;;
10275;SDS011;5183;51.190;6.820;2023-01-23T08:00:05;29.27;;;19.60;;
10275;SDS011;5183;51.190;6.820;2023-01-23T08:02:32;29.17;;;20.27;;
10275;SDS011;5183;51.190;6.820;2023-01-23T08:04:59;27.47;;;18.80;;
10275;SDS011;5183;51.190;6.820;2023-01-23T08:07:27;27.37;;;19.40;;
10275;SDS011;5183;51.190;6.820;2023-01-23T08:09:54;25.87;;;18.30;;
10275;SDS011;5183;51.190;6.820;2023-01-23T08:12:21;28.43;;;19.23;;
10275;SDS011;5183;51.190;6.820;2023-01-23T08:14:48;26.37;;;18.67;;
10275;SDS011;5183;51.190;6.820;2023-01-23T08:17:14;25.93;;;18.67;;
10275;SDS011;5183;51.190;6.820;2023-01-23T08:19:41;25.97;;;18.10;;
10275;SDS011;5183;51.190;6.820;2023-01-23T08:22:11;27.30;;;18.67;;
10275;SDS011;5183;51.190;6.820;2023-01-23T08:24:39;24.40;;;17.37;;
10275;SDS011;5183;51.190;6.820;2023-01-23T08:27:06;27.70;;;18.70;;
10275;SDS011;5183;51.190;6.820;2023-01-23T08:29:33;24.10;;;17.17;;
10275;SDS011;5183;51.190;6.820;2023-01-23T08:32:00;25.80;;;18.47;;
10275;SDS011;5183;51.190;6.820;2023-01-23T08:34:26;25.93;;;18.13;;
10275;SDS011;5183;51.190;6.820;2023-01-23T08:36:53;26.23;;;18.30;;
10275;SDS011;5183;51.190;6.820;2023-01-23T08:39:20;25.33;;;17.50;;
10275;SDS011;5183;51.190;6.820;2023-01-23T08:41:50;24.70;;;17.77;;
10275;SDS011;5183;51.190;6.820;2023-01-23T08:44:16;26.75;;;21.60;;
10275;SDS011;5183;51.190;6.820;2023-01-23T08:46:44;26.60;;;19.10;;
10275;SDS011;5183;51.190;6.820;2023-01-23T08:49:12;25.13;;;18.70;;
10275;SDS011;5183;51.190;6.820;2023-01-23T08:51:39;26.53;;;18.80;;
10275;SDS011;5183;51.190;6.820;2023-01-23T08:54:06;28.27;;;18.40;;
10275;SDS011;5183;51.190;6.820;2023-01-23T08:56:33;24.57;;;17.90;;
10275;SDS011;5183;51.190;6.820;2023-01-23T08:59:01;27.30;;;18.57;;
10275;SDS011;5183;51.190;6.820;2023-01-23T09:01:28;25.63;;;18.07;;
10275;SDS011;5183;51.190;6.820;2023-01-23T09:03:55;27.47;;;18.47;;
10275;SDS011;5183;51.190;6.820;2023-01-23T09:06:22;26.80;;;17.87;;
10275;SDS011;5183;51.190;6.820;2023-01-23T09:08:49;28.40;;;19.23;;
10275;SDS011;5183;51.190;6.820;2023-01-23T09:11:16;28.35;;;20.75;;
10275;SDS011;5183;51.190;6.820;2023-01-23T09:13:44;27.75;;;22.33;;
10275;SDS011;5183;51.190;6.820;2023-01-23T09:16:12;27.70;;;19.63;;
10275;SDS011;5183;51.190;6.820;2023-01-23T09:18:39;27.67;;;19.47;;
10275;SDS011;5183;51.190;6.820;2023-01-23T09:21:06;31.30;;;20.17;;
10275;SDS011;5183;51.190;6.820;2023-01-23T09:23:35;28.47;;;19.37;;
10275;SDS011;5183;51.190;6.820;2023-01-23T09:26:02;29.43;;;19.87;;
10275;SDS011;5183;51.190;6.820;2023-01-23T09:28:29;27.33;;;18.27;;
10275;SDS011;5183;51.190;6.820;2023-01-23T09:31:00;26.60;;;17.47;;
10275;SDS011;5183;51.190;6.820;2023-01-23T09:33:29;28.80;;;19.13;;
10275;SDS011;5183;51.190;6.820;2023-01-23T09:35:56;26.07;;;18.37;;
10275;SDS011;5183;51.190;6.820;2023-01-23T09:38:23;27.60;;;20.63;;
10275;SDS011;5183;51.190;6.820;2023-01-23T09:40:52;28.00;;;18.83;;
10275;SDS011;5183;51.190;6.820;2023-01-23T09:43:21;27.03;;;21.00;;
10275;SDS011;5183;51.190;6.820;2023-01-23T09:45:52;26.92;;;20.95;;
10275;SDS011;5183;51.190;6.820;2023-01-23T09:48:27;26.90;;;18.53;;
10275;SDS011;5183;51.190;6.820;2023-01-23T09:51:10;26.20;;;18.53;;
10275;SDS011;5183;51.190;6.820;2023-01-23T09:53:43;25.97;;;18.73;;
10275;SDS011;5183;51.190;6.820;2023-01-23T09:56:13;26.57;;;19.07;;
10275;SDS011;5183;51.190;6.820;2023-01-23T09:58:50;27.03;;;19.00;;
10275;SDS011;5183;51.190;6.820;2023-01-23T10:01:31;26.40;;;17.90;;
10275;SDS011;5183;51.190;6.820;2023-01-23T10:03:59;25.57;;;16.90;;
10275;SDS011;5183;51.190;6.820;2023-01-23T10:06:28;27.10;;;18.27;;
10275;SDS011;5183;51.190;6.820;2023-01-23T10:09:01;23.67;;;17.50;;
10275;SDS011;5183;51.190;6.820;2023-01-23T10:11:46;26.63;;;17.50;;
10275;SDS011;5183;51.190;6.820;2023-01-23T10:14:26;23.63;;;16.67;;
10275;SDS011;5183;51.190;6.820;2023-01-23T10:17:11;24.67;;;17.13;;
10275;SDS011;5183;51.190;6.820;2023-01-23T10:19:48;25.63;;;17.40;;
10275;SDS011;5183;51.190;6.820;2023-01-23T10:22:31;25.37;;;17.20;;
10275;SDS011;5183;51.190;6.820;2023-01-23T10:25:00;25.73;;;17.70;;
10275;SDS011;5183;51.190;6.820;2023-01-23T10:27:36;24.40;;;16.70;;
10275;SDS011;5183;51.190;6.820;2023-01-23T10:30:13;22.47;;;16.63;;
10275;SDS011;5183;51.190;6.820;2023-01-23T10:32:45;23.20;;;16.93;;
10275;SDS011;5183;51.190;6.820;2023-01-23T10:35:17;24.27;;;16.73;;
10275;SDS011;5183;51.190;6.820;2023-01-23T10:37:51;21.88;;;17.35;;
10275;SDS011;5183;51.190;6.820;2023-01-23T10:40:26;22.53;;;16.43;;
10275;SDS011;5183;51.190;6.820;2023-01-23T10:43:11;23.67;;;16.87;;
10275;SDS011;5183;51.190;6.820;2023-01-23T10:45:39;25.17;;;16.70;;
10275;SDS011;5183;51.190;6.820;2023-01-23T10:48:26;23.33;;;16.97;;
10275;SDS011;5183;51.190;6.820;2023-01-23T10:50:56;24.47;;;16.77;;
10275;SDS011;5183;51.190;6.820;2023-01-23T10:53:24;25.33;;;19.50;;
10275;SDS011;5183;51.190;6.820;2023-01-23T10:55:52;23.37;;;16.90;;
10275;SDS011;5183;51.190;6.820;2023-01-23T10:58:24;22.48;;;17.35;;
10275;SDS011;5183;51.190;6.820;2023-01-23T11:00:57;23.30;;;17.27;;
10275;SDS011;5183;51.190;6.820;2023-01-23T11:03:29;23.10;;;17.10;;
10275;SDS011;5183;51.190;6.820;2023-01-23T11:06:01;23.57;;;17.00;;
10275;SDS011;5183;51.190;6.820;2023-01-23T11:08:30;22.17;;;16.50;;
10275;SDS011;5183;51.190;6.820;2023-01-23T11:13:47;22.40;;;15.83;;
10275;SDS011;5183;51.190;6.820;2023-01-23T11:16:17;24.17;;;17.73;;
10275;SDS011;5183;51.190;6.820;2023-01-23T11:18:46;24.53;;;17.97;;
10275;SDS011;5183;51.190;6.820;2023-01-23T11:21:23;22.90;;;17.37;;
10275;SDS011;5183;51.190;6.820;2023-01-23T11:24:07;24.23;;;20.15;;
10275;SDS011;5183;51.190;6.820;2023-01-23T11:26:36;24.77;;;18.10;;
10275;SDS011;5183;51.190;6.820;2023-01-23T11:29:18;24.23;;;18.40;;
10275;SDS011;5183;51.190;6.820;2023-01-23T11:31:46;26.73;;;17.83;;
10275;SDS011;5183;51.190;6.820;2023-01-23T11:34:15;22.37;;;17.03;;
10275;SDS011;5183;51.190;6.820;2023-01-23T11:36:50;23.63;;;17.50;;
10275;SDS011;5183;51.190;6.820;2023-01-23T11:39:21;21.80;;;17.03;;
10275;SDS011;5183;51.190;6.820;2023-01-23T11:41:59;21.57;;;17.23;;
10275;SDS011;5183;51.190;6.820;2023-01-23T11:44:27;19.40;;;15.67;;
10275;SDS011;5183;51.190;6.820;2023-01-23T11:49:59;20.33;;;15.70;;
10275;SDS011;5183;51.190;6.820;2023-01-23T11:52:41;19.83;;;15.63;;
10275;SDS011;5183;51.190;6.820;2023-01-23T11:55:18;22.27;;;16.67;;
10275;SDS011;5183;51.190;6.820;2023-01-23T11:58:05;21.20;;;16.20;;
10275;SDS011;5183;51.190;6.820;2023-01-23T12:00:42;20.13;;;16.40;;
10275;SDS011;5183;51.190;6.820;2023-01-23T12:03:35;20.63;;;16.57;;
10275;SDS011;5183;51.190;6.820;2023-01-23T12:09:41;20.40;;;15.80;;
10275;SDS011;5183;51.190;6.820;2023-01-23T12:12:15;20.80;;;16.07;;
10275;SDS011;5183;51.190;6.820;2023-01-23T12:14:50;21.43;;;16.13;;
10275;SDS011;5183;51.190;6.820;2023-01-23T12:17:25;20.00;;;15.67;;
10275;SDS011;5183;51.190;6.820;2023-01-23T12:20:09;21.03;;;16.97;;
10275;SDS011;5183;51.190;6.820;2023-01-23T12:22:49;20.07;;;15.57;;
10275;SDS011;5183;51.190;6.820;2023-01-23T12:25:26;20.67;;;14.53;;
10275;SDS011;5183;51.190;6.820;2023-01-23T12:27:58;20.03;;;16.47;;
10275;SDS011;5183;51.190;6.820;2023-01-23T12:30:42;19.87;;;16.10;;
10275;SDS011;5183;51.190;6.820;2023-01-23T12:33:22;16.73;;;13.83;;
10275;SDS011;5183;51.190;6.820;2023-01-23T12:36:09;17.10;;;13.93;;
10275;SDS011;5183;51.190;6.820;2023-01-23T12:38:49;16.53;;;13.20;;
10275;SDS011;5183;51.190;6.820;2023-01-23T12:41:24;15.97;;;13.30;;
10275;SDS011;5183;51.190;6.820;2023-01-23T12:44:01;15.57;;;13.23;;
10275;SDS011;5183;51.190;6.820;2023-01-23T12:46:36;16.63;;;12.57;;
10275;SDS011;5183;51.190;6.820;2023-01-23T12:49:11;14.03;;;12.07;;
10275;SDS011;5183;51.190;6.820;2023-01-23T12:51:46;13.97;;;12.17;;
10275;SDS011;5183;51.190;6.820;2023-01-23T12:54:21;13.90;;;12.40;;
10275;SDS011;5183;51.190;6.820;2023-01-23T12:56:56;15.13;;;12.70;;
10275;SDS011;5183;51.190;6.820;2023-01-23T12:59:25;13.70;;;11.83;;
10275;SDS011;5183;51.190;6.820;2023-01-23T13:02:03;14.97;;;12.10;;
10275;SDS011;5183;51.190;6.820;2023-01-23T13:04:39;13.70;;;11.43;;
10275;SDS011;5183;51.190;6.820;2023-01-23T13:07:23;14.85;;;13.35;;
10275;SDS011;5183;51.190;6.820;2023-01-23T13:10:11;14.10;;;11.83;;
10275;SDS011;5183;51.190;6.820;2023-01-23T13:13:24;14.80;;;12.00;;
10275;SDS011;5183;51.190;6.820;2023-01-23T13:16:03;13.63;;;10.80;;
10275;SDS011;5183;51.190;6.820;2023-01-23T13:18:35;13.93;;;11.70;;
10275;SDS011;5183;51.190;6.820;2023-01-23T13:21:17;13.57;;;11.23;;
10275;SDS011;5183;51.190;6.820;2023-01-23T13:30:14;13.03;;;11.53;;
10275;SDS011;5183;51.190;6.820;2023-01-23T13:45:25;13.90;;;12.07;;
10275;SDS011;5183;51.190;6.820;2023-01-23T13:51:13;12.10;;;10.27;;
10275;SDS011;5183;51.190;6.820;2023-01-23T13:53:43;12.67;;;11.00;;
10275;SDS011;5183;51.190;6.820;2023-01-23T13:56:29;12.77;;;10.90;;
10275;SDS011;5183;51.190;6.820;2023-01-23T13:59:10;14.17;;;11.27;;
10275;SDS011;5183;51.190;6.820;2023-01-23T14:01:47;11.43;;;10.17;;
10275;SDS011;5183;51.190;6.820;2023-01-23T14:04:38;13.30;;;10.47;;
10275;SDS011;5183;51.190;6.820;2023-01-23T14:07:26;11.77;;;10.30;;
10275;SDS011;5183;51.190;6.820;2023-01-23T14:10:14;11.87;;;10.60;;
10275;SDS011;5183;51.190;6.820;2023-01-23T14:12:46;12.80;;;11.38;;
10275;SDS011;5183;51.190;6.820;2023-01-23T14:15:17;13.57;;;11.30;;
10275;SDS011;5183;51.190;6.820;2023-01-23T14:18:03;14.50;;;12.13;;
10275;SDS011;5183;51.190;6.820;2023-01-23T14:20:30;15.67;;;11.97;;
10275;SDS011;5183;51.190;6.820;2023-01-23T14:23:04;15.55;;;13.88;;
10275;SDS011;5183;51.190;6.820;2023-01-23T14:25:51;14.23;;;12.73;;
10275;SDS011;5183;51.190;6.820;2023-01-23T14:28:18;16.10;;;12.70;;
10275;SDS011;5183;51.190;6.820;2023-01-23T14:30:52;15.80;;;12.80;;
10275;SDS011;5183;51.190;6.820;2023-01-23T14:33:19;15.17;;;11.93;;
10275;SDS011;5183;51.190;6.820;2023-01-23T14:35:46;14.67;;;11.87;;
10275;SDS011;5183;51.190;6.820;2023-01-23T14:38:17;15.43;;;12.00;;
10275;SDS011;5183;51.190;6.820;2023-01-23T14:40:50;15.73;;;12.77;;
10275;SDS011;5183;51.190;6.820;2023-01-23T14:43:17;15.57;;;12.30;;
10275;SDS011;5183;51.190;6.820;2023-01-23T14:45:46;15.50;;;13.50;;
10275;SDS011;5183;51.190;6.820;2023-01-23T14:48:18;14.03;;;12.27;;
10275;SDS011;5183;51.190;6.820;2023-01-23T14:50:46;14.23;;;12.43;;
10275;SDS011;5183;51.190;6.820;2023-01-23T14:53:14;16.07;;;13.10;;
10275;SDS011;5183;51.190;6.820;2023-01-23T14:55:44;15.97;;;13.27;;
10275;SDS011;5183;51.190;6.820;2023-01-23T14:58:14;15.53;;;12.87;;
10275;SDS011;5183;51.190;6.820;2023-01-23T15:00:46;15.53;;;12.83;;
10275;SDS011;5183;51.190;6.820;2023-01-23T15:06:04;16.27;;;12.70;;
10275;SDS011;5183;51.190;6.820;2023-01-23T15:08:35;14.23;;;12.03;;
10275;SDS011;5183;51.190;6.820;2023-01-23T15:11:02;13.00;;;11.33;;
10275;SDS011;5183;51.190;6.820;2023-01-23T15:13:32;14.57;;;12.17;;
10275;SDS011;5183;51.190;6.820;2023-01-23T15:16:05;17.30;;;14.63;;
10275;SDS011;5183;51.190;6.820;2023-01-23T15:18:48;15.20;;;12.70;;
10275;SDS011;5183;51.190;6.820;2023-01-23T15:21:26;14.37;;;12.10;;
10275;SDS011;5183;51.190;6.820;2023-01-23T15:24:00;16.13;;;13.17;;
10275;SDS011;5183;51.190;6.820;2023-01-23T15:26:40;17.47;;;14.07;;
10275;SDS011;5183;51.190;6.820;2023-01-23T15:29:16;16.90;;;13.53;;
10275;SDS011;5183;51.190;6.820;2023-01-23T15:31:45;17.57;;;14.40;;